createdAt,value
2023-02-05T00:02:17.809Z,0.99
2023-02-05T00:04:50.647Z,0.95
2023-02-05T00:07:22.784Z,0.94
2023-02-05T00:09:55.258Z,0.98
2023-02-05T00:12:27.236Z,0.93
2023-02-05T00:14:59.193Z,0.89
2023-02-05T00:17:31.648Z,0.86
2023-02-05T00:20:05.048Z,0.84
2023-02-05T00:22:37.158Z,0.82
2023-02-05T00:25:09.518Z,0.85
2023-02-05T00:27:42.307Z,0.84
2023-02-05T00:30:15.036Z,0.80
2023-02-05T00:32:47.769Z,0.77
2023-02-05T00:35:19.803Z,0.80
2023-02-05T00:37:52.067Z,0.82
2023-02-05T00:40:24.080Z,0.78
2023-02-05T00:42:56.140Z,0.76
2023-02-05T00:45:29.769Z,0.76
2023-02-05T00:48:03.216Z,0.76
2023-02-05T00:50:35.872Z,0.79
2023-02-05T00:53:08.939Z,0.76
2023-02-05T00:55:41.101Z,0.75
2023-02-05T00:58:13.684Z,0.73
2023-02-05T01:00:46.061Z,0.71
2023-02-05T01:03:18.816Z,0.68
2023-02-05T01:05:51.933Z,0.68
2023-02-05T01:08:24.364Z,0.66
2023-02-05T01:10:57.054Z,0.59
2023-02-05T01:13:29.227Z,0.54
2023-02-05T01:16:01.351Z,0.50
2023-02-05T01:18:33.640Z,0.49
2023-02-05T01:21:05.789Z,0.46
2023-02-05T01:23:38.278Z,0.46
2023-02-05T01:26:10.198Z,0.44
2023-02-05T01:28:42.131Z,0.42
2023-02-05T01:31:14.262Z,0.41
2023-02-05T01:33:46.514Z,0.40
2023-02-05T01:36:18.650Z,0.40
2023-02-05T01:38:50.774Z,0.33
2023-02-05T01:41:22.975Z,0.31
2023-02-05T01:44:14.242Z,0.29
2023-02-05T01:46:47.834Z,0.23
2023-02-05T01:49:34.676Z,0.22
2023-02-05T01:52:09.558Z,0.18
2023-02-05T01:54:44.706Z,0.18
2023-02-05T01:57:22.184Z,0.20
2023-02-05T01:59:54.374Z,0.18
2023-02-05T02:02:28.965Z,0.13
2023-02-05T02:05:04.351Z,0.13
2023-02-05T02:07:37.305Z,0.13
2023-02-05T02:10:12.072Z,0.12
2023-02-05T02:12:46.874Z,0.11
2023-02-05T02:15:25.787Z,0.13
2023-02-05T02:18:21.871Z,0.13
2023-02-05T02:21:05.517Z,0.13
2023-02-05T02:24:10.527Z,0.13
2023-02-05T02:27:01.756Z,0.13
2023-02-05T02:29:54.449Z,0.11
2023-02-05T02:32:31.990Z,0.08
2023-02-05T02:35:26.823Z,0.08
2023-02-05T02:38:30.511Z,0.08
2023-02-05T02:41:06.435Z,0.08
2023-02-05T02:43:56.414Z,0.08
2023-02-05T02:46:40.564Z,0.08
2023-02-05T02:49:15.671Z,0.07
2023-02-05T02:51:51.004Z,0.08
2023-02-05T02:54:24.249Z,0.09
2023-02-05T02:56:58.518Z,0.08
2023-02-05T02:59:34.059Z,0.11
2023-02-05T03:02:08.951Z,0.07
2023-02-05T03:04:45.540Z,0.07
2023-02-05T03:07:23.757Z,0.07
2023-02-05T03:09:58.978Z,0.11
2023-02-05T03:12:31.948Z,0.13
2023-02-05T03:15:04.228Z,0.08
2023-02-05T03:17:39.460Z,0.08
2023-02-05T03:20:23.138Z,0.12
2023-02-05T03:22:57.265Z,0.08
2023-02-05T03:25:31.748Z,0.08
2023-02-05T03:28:05.242Z,0.08
2023-02-05T03:30:39.127Z,0.08
2023-02-05T03:33:32.253Z,0.25
2023-02-05T03:36:19.412Z,0.12
2023-02-05T03:39:03.295Z,0.09
2023-02-05T03:41:58.819Z,0.08
2023-02-05T03:45:00.663Z,0.08
2023-02-05T03:47:43.442Z,0.07
2023-02-05T03:50:21.178Z,0.07
2023-02-05T03:53:12.226Z,0.07
2023-02-05T03:55:50.134Z,0.06
2023-02-05T03:58:28.122Z,0.04
2023-02-05T04:01:01.738Z,0.02
2023-02-05T04:03:33.777Z,0.03
2023-02-05T04:06:06.337Z,0.19
2023-02-05T04:08:43.044Z,0.00
2023-02-05T04:11:15.764Z,-0.04
2023-02-05T04:13:49.435Z,-0.08
2023-02-05T04:16:21.895Z,-0.13
2023-02-05T04:18:54.023Z,-0.15
2023-02-05T04:21:26.253Z,-0.15
2023-02-05T04:23:58.453Z,-0.16
2023-02-05T04:26:30.720Z,-0.15
2023-02-05T04:29:04.338Z,-0.14
2023-02-05T04:31:38.990Z,-0.13
2023-02-05T04:34:11.247Z,-0.15
2023-02-05T04:36:44.043Z,-0.17
2023-02-05T04:39:15.930Z,-0.19
2023-02-05T04:41:48.163Z,-0.16
2023-02-05T04:44:20.229Z,-0.12
2023-02-05T04:46:52.261Z,-0.14
2023-02-05T04:49:24.555Z,-0.22
2023-02-05T04:51:57.243Z,-0.28
2023-02-05T04:54:29.276Z,-0.34
2023-02-05T04:57:01.593Z,-0.39
2023-02-05T04:59:33.735Z,-0.41
2023-02-05T05:02:06.178Z,-0.42
2023-02-05T05:04:40.651Z,-0.47
2023-02-05T05:07:13.298Z,-0.45
2023-02-05T05:09:45.511Z,-0.42
2023-02-05T05:12:17.532Z,-0.41
2023-02-05T05:14:49.623Z,-0.38
2023-02-05T05:17:21.870Z,-0.38
2023-02-05T05:19:56.828Z,-0.37
2023-02-05T05:22:29.138Z,-0.35
2023-02-05T05:25:01.613Z,-0.32
2023-02-05T05:27:33.788Z,-0.28
2023-02-05T05:30:06.566Z,-0.27
2023-02-05T05:32:38.685Z,-0.24
2023-02-05T05:35:11.107Z,-0.22
2023-02-05T05:37:43.596Z,-0.21
2023-02-05T05:40:33.639Z,-0.17
2023-02-05T05:43:23.729Z,-0.18
2023-02-05T05:45:56.176Z,-0.15
2023-02-05T05:48:29.100Z,-0.14
2023-02-05T05:51:01.386Z,-0.07
2023-02-05T05:53:34.113Z,-0.14
2023-02-05T05:56:06.501Z,-0.16
2023-02-05T05:58:38.759Z,-0.15
2023-02-05T06:01:11.967Z,-0.14
2023-02-05T06:03:44.148Z,-0.13
2023-02-05T06:06:16.359Z,-0.11
2023-02-05T06:08:48.475Z,-0.04
2023-02-05T06:11:20.772Z,-0.01
2023-02-05T06:13:54.660Z,0.07
2023-02-05T06:16:26.797Z,0.09
2023-02-05T06:18:59.242Z,0.13
2023-02-05T06:21:31.533Z,0.14
2023-02-05T06:24:04.003Z,0.17
2023-02-05T06:26:36.686Z,0.16
2023-02-05T06:29:08.796Z,0.19
2023-02-05T06:31:41.087Z,0.22
2023-02-05T06:34:13.644Z,0.25
2023-02-05T06:36:45.917Z,0.28
2023-02-05T06:39:17.936Z,0.30
2023-02-05T06:41:50.462Z,0.35
2023-02-05T06:44:22.933Z,0.39
2023-02-05T06:46:55.420Z,0.47
2023-02-05T06:49:28.489Z,0.53
2023-02-05T06:52:01.251Z,0.61
2023-02-05T06:54:33.552Z,0.67
2023-02-05T06:57:06.530Z,0.77
2023-02-05T06:59:39.223Z,0.85
2023-02-05T07:02:14.796Z,0.84
2023-02-05T07:04:47.244Z,0.90
2023-02-05T07:07:19.175Z,0.91
2023-02-05T07:09:51.788Z,0.92
2023-02-05T07:12:24.130Z,0.96
2023-02-05T07:14:56.101Z,0.94
2023-02-05T07:17:28.048Z,0.96
2023-02-05T07:20:00.319Z,1.03
2023-02-05T07:22:34.289Z,1.05
2023-02-05T07:25:06.445Z,1.09
2023-02-05T07:27:38.548Z,1.05
2023-02-05T07:30:11.968Z,1.01
2023-02-05T07:32:44.048Z,0.99
2023-02-05T07:35:16.216Z,0.97
2023-02-05T07:37:48.535Z,0.98
2023-02-05T07:40:21.004Z,1.01
2023-02-05T07:42:53.426Z,1.04
2023-02-05T07:45:25.634Z,1.04
2023-02-05T07:47:58.089Z,1.04
2023-02-05T07:50:30.614Z,0.98
2023-02-05T07:53:02.874Z,0.94
2023-02-05T07:55:37.798Z,0.95
2023-02-05T07:58:09.998Z,0.99
2023-02-05T08:00:42.345Z,1.02
2023-02-05T08:03:15.143Z,1.06
2023-02-05T08:05:47.313Z,1.07
2023-02-05T08:08:19.581Z,1.09
2023-02-05T08:11:00.897Z,1.11
2023-02-05T08:13:34.119Z,1.12
2023-02-05T08:16:09.747Z,1.14
2023-02-05T08:18:42.236Z,1.09
2023-02-05T08:21:14.551Z,1.02
2023-02-05T08:23:46.813Z,0.91
2023-02-05T08:26:19.814Z,0.82
2023-02-05T08:28:54.697Z,0.84
2023-02-05T08:31:27.837Z,0.95
2023-02-05T08:34:00.519Z,1.09
2023-02-05T08:36:33.295Z,1.19
2023-02-05T08:39:06.654Z,1.18
2023-02-05T08:41:39.465Z,1.18
2023-02-05T08:44:11.882Z,1.19
2023-02-05T08:46:50.207Z,1.22
2023-02-05T08:49:19.137Z,1.17
2023-02-05T08:51:52.175Z,1.13
2023-02-05T08:54:24.519Z,1.10
2023-02-05T08:56:56.916Z,1.11
2023-02-05T08:59:29.026Z,1.11
2023-02-05T09:02:01.548Z,1.12
2023-02-05T09:04:33.995Z,1.12
2023-02-05T09:07:06.525Z,1.12
2023-02-05T09:09:38.890Z,1.14
2023-02-05T09:12:14.056Z,1.19
2023-02-05T09:14:47.348Z,1.30
2023-02-05T09:17:19.772Z,1.40
2023-02-05T09:19:52.144Z,1.53
2023-02-05T09:22:24.408Z,1.71
2023-02-05T09:24:56.500Z,1.96
2023-02-05T09:27:28.897Z,2.22
2023-02-05T09:30:00.970Z,2.42
2023-02-05T09:32:34.669Z,2.53
2023-02-05T09:35:08.500Z,2.61
2023-02-05T09:37:40.737Z,2.62
2023-02-05T09:40:21.159Z,2.64
2023-02-05T09:43:11.494Z,2.66
2023-02-05T09:46:15.554Z,2.62
2023-02-05T09:48:57.178Z,2.58
2023-02-05T09:51:38.692Z,2.50
2023-02-05T09:54:26.597Z,2.37
2023-02-05T09:57:01.941Z,2.29
2023-02-05T09:59:35.524Z,2.11
2023-02-05T10:02:28.446Z,2.09
2023-02-05T10:05:01.304Z,1.94
2023-02-05T10:07:48.934Z,1.89
2023-02-05T10:10:36.501Z,1.90
2023-02-05T10:13:32.674Z,1.97
2023-02-05T10:16:28.640Z,2.01
2023-02-05T10:19:05.232Z,2.07
2023-02-05T10:21:52.533Z,2.01
2023-02-05T10:24:39.524Z,1.88
2023-02-05T10:27:17.512Z,1.76
2023-02-05T10:30:09.281Z,1.71
2023-02-05T10:32:45.002Z,1.68
2023-02-05T10:42:57.559Z,1.67
2023-02-05T10:45:31.572Z,1.73
2023-02-05T10:48:21.779Z,1.70
2023-02-05T10:51:00.048Z,1.75
2023-02-05T10:53:33.799Z,1.74
2023-02-05T10:56:07.353Z,1.76
2023-02-05T10:58:48.112Z,1.76
2023-02-05T11:01:22.884Z,1.75
2023-02-05T11:04:00.947Z,1.80
2023-02-05T11:06:36.260Z,1.76
2023-02-05T11:09:26.852Z,1.80
2023-02-05T11:12:05.433Z,1.77
2023-02-05T11:14:44.302Z,1.82
2023-02-05T11:17:20.359Z,1.90
2023-02-05T11:19:59.284Z,2.04
2023-02-05T11:22:36.376Z,2.21
2023-02-05T11:25:21.370Z,2.43
2023-02-05T11:28:05.852Z,2.53
2023-02-05T11:30:50.721Z,2.63
2023-02-05T11:33:24.855Z,2.68
2023-02-05T11:36:03.264Z,2.66
2023-02-05T11:38:46.786Z,2.63
2023-02-05T11:41:36.016Z,2.59
2023-02-05T11:44:08.437Z,2.57
2023-02-05T11:46:44.605Z,2.57
2023-02-05T11:49:23.645Z,2.61
2023-02-05T11:51:58.728Z,2.65
2023-02-05T11:54:36.891Z,2.66
2023-02-05T11:57:21.032Z,2.65
2023-02-05T12:00:16.115Z,2.67
2023-02-05T12:02:49.230Z,2.58
2023-02-05T12:05:24.205Z,2.72
2023-02-05T12:08:14.809Z,2.51
2023-02-05T12:10:50.545Z,2.40
2023-02-05T12:13:37.611Z,2.28
2023-02-05T12:16:40.255Z,2.17
2023-02-05T12:19:21.599Z,2.10
2023-02-05T12:22:00.846Z,2.05
2023-02-05T12:24:59.713Z,1.99
2023-02-05T12:27:55.038Z,1.90
2023-02-05T12:31:00.249Z,1.87
2023-02-05T12:33:41.707Z,1.78
2023-02-05T12:36:40.626Z,1.71
2023-02-05T12:39:27.979Z,1.66
2023-02-05T12:42:09.748Z,1.65
2023-02-05T12:44:57.390Z,1.69
2023-02-05T12:47:53.132Z,1.79
2023-02-05T12:50:53.767Z,1.78
2023-02-05T12:53:45.177Z,1.80
2023-02-05T12:56:28.649Z,1.72
2023-02-05T12:59:13.888Z,1.68
2023-02-05T13:01:49.577Z,1.62
2023-02-05T13:04:24.970Z,1.75
2023-02-05T13:07:00.307Z,1.59
2023-02-05T13:09:37.375Z,1.57
2023-02-05T13:12:12.523Z,1.57
2023-02-05T13:14:56.902Z,1.53
2023-02-05T13:17:32.720Z,1.48
2023-02-05T13:20:08.162Z,1.45
2023-02-05T13:23:06.419Z,1.39
2023-02-05T13:25:59.155Z,1.37
2023-02-05T13:28:53.316Z,1.37
2023-02-05T13:31:31.416Z,1.45
2023-02-05T13:34:06.524Z,1.40
2023-02-05T13:36:56.573Z,1.36
2023-02-05T13:39:34.810Z,1.32
2023-02-05T13:42:24.696Z,1.30
2023-02-05T13:45:11.900Z,1.36
2023-02-05T13:47:52.915Z,1.25
2023-02-05T13:50:49.351Z,1.20
2023-02-05T13:53:34.006Z,1.11
2023-02-05T13:56:31.568Z,1.12
2023-02-05T13:59:24.426Z,1.08
2023-02-05T14:02:00.711Z,1.01
2023-02-05T14:04:45.668Z,0.97
2023-02-05T14:07:23.541Z,1.01
2023-02-05T14:10:00.583Z,1.03
2023-02-05T14:12:37.500Z,0.95
2023-02-05T14:15:19.851Z,0.94
2023-02-05T14:17:55.166Z,0.92
2023-02-05T14:20:37.032Z,0.91
2023-02-05T14:23:20.926Z,0.90
2023-02-05T14:26:09.931Z,0.88
2023-02-05T14:28:47.385Z,0.92
2023-02-05T14:31:49.006Z,0.87
2023-02-05T14:34:36.727Z,0.90
2023-02-05T14:37:13.750Z,0.86
2023-02-05T14:39:46.084Z,0.91
2023-02-05T14:42:21.473Z,0.90
2023-02-05T14:44:57.656Z,0.92
2023-02-05T14:47:33.340Z,0.92
2023-02-05T14:50:11.279Z,0.89
2023-02-05T14:52:49.291Z,0.89
2023-02-05T14:55:24.171Z,0.91
2023-02-05T14:57:59.317Z,0.91
2023-02-05T15:00:42.860Z,0.93
2023-02-05T15:03:21.973Z,0.92
2023-02-05T15:05:56.959Z,0.89
2023-02-05T15:08:38.020Z,0.87
2023-02-05T15:11:25.428Z,0.86
2023-02-05T15:14:09.248Z,0.85
2023-02-05T15:16:41.361Z,0.88
2023-02-05T15:19:16.834Z,0.91
2023-02-05T15:21:51.948Z,0.89
2023-02-05T15:24:27.023Z,0.88
2023-02-05T15:27:02.269Z,0.84
2023-02-05T15:29:43.875Z,0.83
2023-02-05T15:32:22.044Z,0.81
2023-02-05T15:35:05.621Z,0.81
2023-02-05T15:37:40.771Z,0.77
2023-02-05T15:40:15.874Z,0.75
2023-02-05T15:42:51.103Z,0.72
2023-02-05T15:45:34.236Z,0.63
2023-02-05T15:48:16.447Z,0.58
2023-02-05T15:50:58.679Z,0.46
2023-02-05T15:53:36.479Z,0.32
2023-02-05T15:56:11.607Z,0.26
2023-02-05T15:58:52.575Z,0.12
2023-02-05T16:01:27.902Z,0.02
2023-02-05T16:04:00.615Z,-0.02
2023-02-05T16:06:32.728Z,-0.06
2023-02-05T16:09:06.384Z,-0.10
2023-02-05T16:11:40.498Z,-0.14
2023-02-05T16:14:16.443Z,-0.17
2023-02-05T16:17:06.077Z,-0.06
2023-02-05T16:19:47.219Z,-0.23
2023-02-05T16:22:25.080Z,-0.30
2023-02-05T16:25:01.557Z,-0.38
2023-02-05T16:27:48.283Z,-0.44
2023-02-05T16:30:23.156Z,-0.41
2023-02-05T16:32:57.577Z,-0.42
2023-02-05T16:35:32.580Z,-0.39
2023-02-05T16:38:06.913Z,-0.42
2023-02-05T16:40:43.173Z,-0.47
2023-02-05T16:43:33.088Z,-0.48
2023-02-05T16:46:08.232Z,-0.54
2023-02-05T16:48:49.051Z,-0.58
2023-02-05T16:51:37.162Z,-0.62
2023-02-05T16:54:14.932Z,-0.60
2023-02-05T16:56:55.703Z,-0.59
2023-02-05T16:59:33.825Z,-0.61
2023-02-05T17:02:06.287Z,-0.65
2023-02-05T17:04:40.168Z,-0.62
2023-02-05T17:07:21.558Z,-0.62
2023-02-05T17:09:53.773Z,-0.57
2023-02-05T17:12:40.985Z,-0.53
2023-02-05T17:15:19.302Z,-0.49
2023-02-05T17:17:56.068Z,-0.50
2023-02-05T17:20:29.466Z,-0.52
2023-02-05T17:23:09.575Z,-0.53
2023-02-05T17:25:55.063Z,-0.49
2023-02-05T17:28:29.942Z,-0.48
2023-02-05T17:31:02.672Z,-0.41
2023-02-05T17:33:35.013Z,-0.35
2023-02-05T17:36:09.011Z,-0.28
2023-02-05T17:38:40.351Z,-0.26
2023-02-05T17:41:49.244Z,-0.06
2023-02-05T17:44:24.221Z,-0.10
2023-02-05T17:46:58.641Z,-0.07
2023-02-05T17:49:31.288Z,-0.12
2023-02-05T17:52:03.400Z,-0.17
2023-02-05T17:54:36.725Z,-0.23
2023-02-05T17:57:17.275Z,-0.23
2023-02-05T17:59:49.619Z,-0.24
2023-02-05T18:02:21.818Z,-0.22
2023-02-05T18:04:54.319Z,-0.18
2023-02-05T18:07:38.168Z,-0.20
2023-02-05T18:10:13.224Z,-0.25
2023-02-05T18:12:45.496Z,-0.21
2023-02-05T18:15:18.546Z,-0.18
2023-02-05T18:17:50.999Z,-0.23
2023-02-05T18:20:23.613Z,-0.19
2023-02-05T18:22:56.123Z,-0.16
2023-02-05T18:25:28.533Z,-0.14
2023-02-05T18:28:00.963Z,-0.13
2023-02-05T18:30:33.330Z,-0.13
2023-02-05T18:33:07.363Z,-0.13
2023-02-05T18:35:39.842Z,-0.16
2023-02-05T18:38:11.886Z,-0.14
2023-02-05T18:40:43.917Z,-0.14
2023-02-05T18:43:15.978Z,-0.15
2023-02-05T18:45:48.112Z,-0.18
2023-02-05T18:48:20.494Z,-0.19
2023-02-05T18:50:52.720Z,-0.21
2023-02-05T18:53:26.560Z,-0.18
2023-02-05T18:56:03.942Z,-0.19
2023-02-05T18:58:36.763Z,-0.19
2023-02-05T19:01:16.873Z,-0.18
2023-02-05T19:03:49.676Z,-0.26
2023-02-05T19:06:23.824Z,-0.34
2023-02-05T19:08:58.248Z,-0.39
2023-02-05T19:11:31.393Z,-0.42
2023-02-05T19:14:05.976Z,-0.47
2023-02-05T19:16:39.639Z,-0.46
2023-02-05T19:19:14.689Z,-0.50
2023-02-05T19:21:48.568Z,-0.49
2023-02-05T19:24:21.741Z,-0.53
2023-02-05T19:26:57.964Z,-0.50
2023-02-05T19:29:30.667Z,-0.58
2023-02-05T19:32:04.400Z,-0.62
2023-02-05T19:34:38.662Z,-0.66
2023-02-05T19:37:12.345Z,-0.68
2023-02-05T19:39:44.075Z,-0.68
2023-02-05T19:42:16.218Z,-0.49
2023-02-05T19:44:48.422Z,-0.58
2023-02-05T19:47:21.850Z,-0.56
2023-02-05T19:49:54.234Z,-0.50
2023-02-05T19:52:26.505Z,-0.47
2023-02-05T19:54:58.769Z,-0.46
2023-02-05T19:57:32.347Z,-0.45
2023-02-05T20:00:04.667Z,-0.40
2023-02-05T20:02:39.080Z,-0.33
2023-02-05T20:05:11.183Z,-0.25
2023-02-05T20:07:43.405Z,-0.28
2023-02-05T20:10:16.085Z,-0.26
2023-02-05T20:12:49.976Z,-0.27
2023-02-05T20:15:22.405Z,-0.24
2023-02-05T20:17:56.569Z,-0.24
2023-02-05T20:20:44.767Z,-0.27
2023-02-05T20:23:02.689Z,-0.24
2023-02-05T20:25:34.857Z,-0.25
2023-02-05T20:28:07.160Z,-0.25
2023-02-05T20:31:00.384Z,-0.17
2023-02-05T20:33:32.626Z,-0.22
2023-02-05T20:36:10.202Z,-0.20
2023-02-05T20:38:42.793Z,-0.26
2023-02-05T20:41:17.242Z,-0.21
2023-02-05T20:43:49.586Z,-0.23
2023-02-05T20:46:22.850Z,-0.31
2023-02-05T20:48:55.015Z,-0.26
2023-02-05T20:51:27.211Z,-0.33
2023-02-05T20:54:00.390Z,-0.33
2023-02-05T20:56:33.133Z,-0.35
2023-02-05T20:59:07.162Z,-0.40
2023-02-05T21:01:41.180Z,-0.42
2023-02-05T21:04:13.554Z,-0.43
2023-02-05T21:06:45.778Z,-0.40
2023-02-05T21:09:18.153Z,-0.41
2023-02-05T21:11:51.139Z,-0.42
2023-02-05T21:14:23.407Z,-0.46
2023-02-05T21:16:55.475Z,-0.46
2023-02-05T21:19:27.391Z,-0.46
2023-02-05T21:21:59.543Z,-0.49
2023-02-05T21:24:31.770Z,-0.47
2023-02-05T21:27:03.847Z,-0.48
2023-02-05T21:29:35.956Z,-0.58
2023-02-05T21:32:08.335Z,-0.64
2023-02-05T21:34:40.372Z,-0.61
2023-02-05T21:37:15.171Z,-0.64
2023-02-05T21:39:48.069Z,-0.60
2023-02-05T21:42:20.562Z,-0.64
2023-02-05T21:44:54.233Z,-0.66
2023-02-05T21:47:26.386Z,-0.66
2023-02-05T21:49:58.347Z,-0.65
2023-02-05T21:52:30.361Z,-0.71
2023-02-05T21:55:02.812Z,-0.70
2023-02-05T21:57:34.902Z,-0.81
2023-02-05T22:00:07.155Z,-0.86
2023-02-05T22:02:41.131Z,-0.90
2023-02-05T22:05:13.142Z,-0.87
2023-02-05T22:07:45.337Z,-0.84
2023-02-05T22:10:17.699Z,-0.92
2023-02-05T22:12:49.656Z,-0.96
2023-02-05T22:15:21.714Z,-1.00
2023-02-05T22:17:53.594Z,-1.04
2023-02-05T22:20:25.734Z,-1.06
2023-02-05T22:22:59.647Z,-1.07
2023-02-05T22:25:32.396Z,-1.07
2023-02-05T22:28:04.702Z,-1.09
2023-02-05T22:30:36.932Z,-1.07
2023-02-05T22:33:09.010Z,-1.05
2023-02-05T22:35:41.406Z,-1.04
2023-02-05T22:38:14.087Z,-1.01
2023-02-05T22:40:46.273Z,-0.99
2023-02-05T22:43:18.300Z,-0.98
2023-02-05T22:45:50.422Z,-1.03
2023-02-05T22:48:22.895Z,-1.02
2023-02-05T22:50:55.087Z,-1.05
2023-02-05T22:53:27.251Z,-1.04
2023-02-05T22:56:05.149Z,-1.09
2023-02-05T22:58:43.034Z,-1.08
2023-02-05T23:01:21.176Z,-1.09
2023-02-05T23:03:53.946Z,-1.11
2023-02-05T23:06:29.115Z,-1.11
2023-02-05T23:09:03.917Z,-1.03
2023-02-05T23:11:36.532Z,-0.94
2023-02-05T23:14:08.992Z,-1.06
2023-02-05T23:16:44.076Z,-1.05
2023-02-05T23:19:19.173Z,-1.07
2023-02-05T23:21:51.924Z,-1.11
2023-02-05T23:24:23.953Z,-1.08
2023-02-05T23:26:56.008Z,-1.12
2023-02-05T23:29:28.494Z,-1.11
2023-02-05T23:32:00.748Z,-1.12
2023-02-05T23:34:32.689Z,-1.19
2023-02-05T23:37:04.775Z,-1.21
2023-02-05T23:39:36.743Z,-1.24
2023-02-05T23:42:10.526Z,-1.26
2023-02-05T23:44:42.050Z,-1.26
2023-02-05T23:47:13.950Z,-1.15
2023-02-05T23:49:45.956Z,-1.22
2023-02-05T23:52:17.968Z,-1.25
2023-02-05T23:54:49.968Z,-1.27
2023-02-05T23:57:22.024Z,-1.32
2023-02-05T23:59:54.054Z,-1.35
